createdAt,value
2017-11-15T00:02:16.769Z,8.50
2017-11-15T00:04:44.213Z,8.40
2017-11-15T00:07:12.478Z,8.50
2017-11-15T00:09:39.899Z,8.50
2017-11-15T00:12:07.380Z,8.50
2017-11-15T00:14:34.789Z,8.50
2017-11-15T00:17:02.285Z,8.40
2017-11-15T00:19:29.722Z,8.50
2017-11-15T00:21:57.177Z,8.60
2017-11-15T00:24:24.650Z,8.70
2017-11-15T00:26:52.096Z,8.70
2017-11-15T00:29:20.347Z,8.50
2017-11-15T00:31:47.825Z,8.50
2017-11-15T00:34:16.058Z,8.60
2017-11-15T00:36:43.553Z,8.60
2017-11-15T00:39:11.025Z,8.60
2017-11-15T00:41:38.460Z,8.60
2017-11-15T00:44:05.924Z,8.70
2017-11-15T00:46:33.393Z,8.70
2017-11-15T00:49:00.897Z,8.70
2017-11-15T00:51:28.392Z,8.70
2017-11-15T00:53:55.854Z,8.60
2017-11-15T00:56:23.306Z,8.60
2017-11-15T00:58:51.194Z,8.70
2017-11-15T01:01:18.651Z,8.70
2017-11-15T01:03:46.101Z,8.60
2017-11-15T01:06:13.582Z,8.70
2017-11-15T01:08:41.039Z,8.60
2017-11-15T01:11:08.520Z,8.50
2017-11-15T01:13:35.981Z,8.50
2017-11-15T01:16:03.458Z,8.60
2017-11-15T01:18:30.911Z,8.80
2017-11-15T01:20:58.388Z,8.80
2017-11-15T01:23:25.855Z,8.70
2017-11-15T01:25:53.348Z,8.50
2017-11-15T01:28:21.586Z,8.70
2017-11-15T01:30:49.038Z,8.70
2017-11-15T01:33:16.547Z,8.80
2017-11-15T01:35:43.992Z,8.80
2017-11-15T01:38:12.230Z,8.70
2017-11-15T01:40:39.750Z,8.70
2017-11-15T01:43:07.993Z,8.70
2017-11-15T01:45:35.465Z,8.70
2017-11-15T01:48:02.966Z,8.80
2017-11-15T01:50:30.417Z,8.70
2017-11-15T01:52:57.898Z,8.70
2017-11-15T01:55:25.391Z,8.80
2017-11-15T01:57:52.837Z,8.70
2017-11-15T02:00:20.338Z,8.70
2017-11-15T02:02:47.797Z,8.70
2017-11-15T02:05:15.268Z,8.50
2017-11-15T02:07:42.729Z,8.50
2017-11-15T02:10:10.215Z,8.60
2017-11-15T02:12:38.446Z,8.60
2017-11-15T02:15:05.957Z,8.60
2017-11-15T02:17:34.204Z,8.70
2017-11-15T02:20:01.669Z,8.70
2017-11-15T02:22:29.147Z,8.70
2017-11-15T02:24:56.624Z,8.70
2017-11-15T02:27:24.891Z,8.80
2017-11-15T02:29:52.339Z,8.80
2017-11-15T02:32:21.323Z,8.80
2017-11-15T02:34:48.804Z,8.80
2017-11-15T02:37:16.260Z,8.60
2017-11-15T02:39:43.750Z,8.60
2017-11-15T02:42:12.030Z,8.60
2017-11-15T02:44:40.234Z,8.70
2017-11-15T02:47:07.652Z,8.70
2017-11-15T02:49:35.156Z,8.60
2017-11-15T02:52:02.601Z,8.50
2017-11-15T02:54:30.097Z,8.50
2017-11-15T02:56:58.381Z,8.60
2017-11-15T02:59:26.613Z,8.60
2017-11-15T03:01:54.092Z,8.50
2017-11-15T03:04:21.553Z,8.60
2017-11-15T03:06:49.057Z,8.70
2017-11-15T03:09:17.282Z,8.80
2017-11-15T03:11:44.902Z,8.80
2017-11-15T03:14:13.155Z,8.60
2017-11-15T03:16:40.618Z,8.60
2017-11-15T03:19:08.114Z,8.60
2017-11-15T03:21:35.547Z,8.60
2017-11-15T03:24:03.065Z,8.60
2017-11-15T03:26:30.556Z,8.70
2017-11-15T03:28:57.967Z,8.70
2017-11-15T03:31:26.228Z,8.70
2017-11-15T03:33:53.687Z,8.70
2017-11-15T03:36:21.141Z,8.70
2017-11-15T03:38:48.735Z,8.80
2017-11-15T03:41:16.217Z,8.80
2017-11-15T03:43:43.722Z,8.90
2017-11-15T03:46:11.153Z,8.90
2017-11-15T03:48:38.619Z,8.80
2017-11-15T03:51:06.097Z,8.80
2017-11-15T03:53:33.535Z,8.80
2017-11-15T03:56:01.011Z,8.90
2017-11-15T03:58:28.498Z,8.90
2017-11-15T04:00:55.953Z,9.00
2017-11-15T04:03:23.434Z,9.00
2017-11-15T04:05:51.652Z,8.90
2017-11-15T04:08:19.136Z,8.90
2017-11-15T04:10:46.614Z,8.90
2017-11-15T04:13:14.121Z,8.90
2017-11-15T04:15:42.333Z,8.90
2017-11-15T04:18:09.815Z,8.90
2017-11-15T04:20:37.278Z,8.90
2017-11-15T04:23:04.717Z,9.00
2017-11-15T04:25:32.205Z,8.90
2017-11-15T04:27:59.654Z,8.90
2017-11-15T04:30:27.238Z,9.00
2017-11-15T04:32:54.689Z,9.00
2017-11-15T04:35:22.141Z,9.00
2017-11-15T04:37:49.602Z,9.00
2017-11-15T04:40:17.078Z,9.00
2017-11-15T04:42:44.696Z,9.00
2017-11-15T04:45:12.223Z,9.00
2017-11-15T04:47:39.678Z,9.10
2017-11-15T04:50:07.129Z,9.00
2017-11-15T04:52:34.695Z,9.00
2017-11-15T04:55:02.185Z,9.10
2017-11-15T04:57:29.632Z,9.00
2017-11-15T04:59:57.099Z,9.00
2017-11-15T05:02:24.563Z,9.00
2017-11-15T05:04:52.215Z,8.90
2017-11-15T05:07:19.656Z,8.90
2017-11-15T05:09:47.135Z,8.80
2017-11-15T05:12:14.663Z,8.90
2017-11-15T05:14:42.111Z,8.70
2017-11-15T05:17:10.344Z,8.70
2017-11-15T05:19:37.826Z,8.70
2017-11-15T05:22:05.287Z,8.70
2017-11-15T05:24:32.737Z,8.80
2017-11-15T05:27:00.214Z,8.90
2017-11-15T05:29:27.672Z,8.80
2017-11-15T05:31:55.176Z,8.90
2017-11-15T05:34:22.666Z,8.90
2017-11-15T05:36:50.161Z,8.70
2017-11-15T05:39:17.648Z,8.80
2017-11-15T05:41:45.910Z,8.80
2017-11-15T05:44:13.401Z,8.80
2017-11-15T05:46:41.594Z,8.90
2017-11-15T05:49:09.097Z,8.90
2017-11-15T05:51:36.548Z,8.90
2017-11-15T05:54:04.052Z,8.90
2017-11-15T05:56:32.300Z,9.00
2017-11-15T05:58:59.762Z,9.00
2017-11-15T06:01:27.212Z,9.00
2017-11-15T06:03:54.692Z,8.90
2017-11-15T06:06:22.149Z,8.90
2017-11-15T06:08:49.658Z,8.90
2017-11-15T06:11:17.181Z,9.00
2017-11-15T06:13:44.711Z,8.80
2017-11-15T06:16:12.162Z,8.80
2017-11-15T06:18:39.583Z,8.80
2017-11-15T06:21:07.250Z,8.70
2017-11-15T06:23:34.752Z,8.70
2017-11-15T06:26:02.253Z,8.80
2017-11-15T06:28:29.738Z,8.80
2017-11-15T06:30:57.957Z,8.80
2017-11-15T06:33:25.490Z,8.80
2017-11-15T06:35:52.898Z,8.80
2017-11-15T06:38:21.778Z,8.70
2017-11-15T06:40:49.311Z,8.70
2017-11-15T06:43:16.809Z,8.70
2017-11-15T06:45:44.253Z,8.70
2017-11-15T06:48:12.510Z,8.80
2017-11-15T06:50:40.014Z,8.80
2017-11-15T06:53:07.505Z,8.80
2017-11-15T06:55:35.000Z,8.80
2017-11-15T06:58:02.479Z,8.90
2017-11-15T07:00:30.735Z,8.90
2017-11-15T07:02:58.244Z,8.90
2017-11-15T07:05:25.686Z,8.90
2017-11-15T07:07:53.985Z,9.00
2017-11-15T07:10:21.449Z,9.00
2017-11-15T07:12:48.943Z,9.00
2017-11-15T07:15:16.437Z,8.90
2017-11-15T07:17:44.016Z,8.90
2017-11-15T07:20:11.468Z,8.90
2017-11-15T07:22:38.958Z,8.90
2017-11-15T07:25:06.435Z,8.90
2017-11-15T07:27:33.926Z,9.00
2017-11-15T07:30:01.412Z,9.00
2017-11-15T07:32:28.915Z,9.10
2017-11-15T07:34:56.405Z,9.10
2017-11-15T07:37:23.922Z,9.10
2017-11-15T07:39:52.192Z,9.10
2017-11-15T07:42:19.634Z,9.00
2017-11-15T07:44:47.095Z,9.00
2017-11-15T07:47:14.633Z,9.20
2017-11-15T07:49:42.839Z,9.20
2017-11-15T07:52:10.253Z,9.20
2017-11-15T07:54:37.780Z,9.20
2017-11-15T07:57:05.257Z,9.20
2017-11-15T07:59:33.478Z,9.30
2017-11-15T08:02:00.971Z,9.30
2017-11-15T08:04:28.441Z,9.30
2017-11-15T08:06:55.893Z,9.40
2017-11-15T08:09:23.363Z,9.40
2017-11-15T08:11:51.065Z,9.50
2017-11-15T08:14:18.504Z,9.50
2017-11-15T08:16:45.957Z,9.50
2017-11-15T08:19:13.479Z,9.60
2017-11-15T08:21:40.906Z,9.50
2017-11-15T08:24:08.397Z,9.60
2017-11-15T08:26:35.934Z,9.50
2017-11-15T08:29:04.153Z,9.50
2017-11-15T08:31:31.597Z,9.50
2017-11-15T08:33:59.109Z,9.50
2017-11-15T08:36:26.826Z,9.50
2017-11-15T08:38:54.264Z,9.50
2017-11-15T08:41:22.483Z,9.40
2017-11-15T08:43:49.964Z,9.40
2017-11-15T08:46:17.425Z,9.50
2017-11-15T08:48:44.941Z,9.70
2017-11-15T08:51:12.424Z,9.70
2017-11-15T08:53:39.946Z,9.70
2017-11-15T08:56:08.180Z,9.80
2017-11-15T08:58:35.613Z,9.80
2017-11-15T09:01:03.065Z,9.80
2017-11-15T09:03:31.277Z,9.90
2017-11-15T09:05:58.791Z,9.90
2017-11-15T09:08:26.251Z,10.00
2017-11-15T09:10:53.760Z,10.00
2017-11-15T09:13:21.261Z,10.00
2017-11-15T09:15:48.783Z,10.00
2017-11-15T09:18:16.224Z,10.00
2017-11-15T09:20:44.506Z,9.90
2017-11-15T09:23:11.941Z,9.90
2017-11-15T09:25:39.424Z,9.70
2017-11-15T09:28:07.670Z,9.80
2017-11-15T09:30:35.387Z,9.80
2017-11-15T09:33:02.844Z,9.80
2017-11-15T09:35:30.420Z,9.90
2017-11-15T09:37:57.832Z,9.90
2017-11-15T09:40:25.303Z,9.80
2017-11-15T09:42:52.885Z,9.80
2017-11-15T09:45:21.129Z,9.80
2017-11-15T09:47:48.605Z,9.80
2017-11-15T09:50:16.042Z,9.90
2017-11-15T09:52:43.542Z,10.00
2017-11-15T09:55:11.019Z,10.10
2017-11-15T09:57:39.263Z,10.30
2017-11-15T10:00:06.701Z,10.30
2017-11-15T10:02:34.207Z,10.30
2017-11-15T10:05:02.431Z,10.20
2017-11-15T10:07:29.887Z,10.20
2017-11-15T10:09:57.392Z,10.20
2017-11-15T10:12:24.838Z,10.30
2017-11-15T10:14:52.338Z,10.20
2017-11-15T10:17:19.792Z,10.10
2017-11-15T10:19:47.280Z,10.10
2017-11-15T10:22:15.277Z,10.20
2017-11-15T10:24:42.766Z,10.30
2017-11-15T10:27:10.228Z,10.30
2017-11-15T10:29:37.680Z,10.40
2017-11-15T10:32:05.170Z,10.30
2017-11-15T10:34:32.634Z,10.30
2017-11-15T10:37:00.104Z,10.40
2017-11-15T10:39:29.097Z,10.40
2017-11-15T10:41:56.639Z,10.30
2017-11-15T10:44:24.851Z,10.40
2017-11-15T10:46:52.329Z,10.40
2017-11-15T10:49:20.775Z,10.50
2017-11-15T10:51:48.253Z,10.50
2017-11-15T10:54:16.538Z,10.50
2017-11-15T10:56:44.000Z,10.50
2017-11-15T10:59:11.401Z,10.50
2017-11-15T11:01:38.905Z,10.60
2017-11-15T11:04:06.373Z,10.70
2017-11-15T11:06:33.833Z,10.70
2017-11-15T11:09:01.303Z,10.70
2017-11-15T11:11:28.729Z,10.70
2017-11-15T11:13:56.218Z,10.70
2017-11-15T11:16:23.638Z,10.70
2017-11-15T11:18:51.097Z,10.70
2017-11-15T11:21:18.608Z,10.70
2017-11-15T11:23:46.055Z,10.70
2017-11-15T11:26:13.536Z,10.70
2017-11-15T11:28:40.998Z,10.80
2017-11-15T11:31:08.453Z,10.70
2017-11-15T11:33:35.942Z,10.70
2017-11-15T11:36:04.192Z,10.90
2017-11-15T11:38:31.684Z,10.90
2017-11-15T11:40:59.178Z,10.90
2017-11-15T11:43:26.651Z,10.90
2017-11-15T11:45:54.143Z,10.80
2017-11-15T11:48:21.598Z,10.80
2017-11-15T11:50:49.211Z,10.90
2017-11-15T11:53:17.546Z,11.00
2017-11-15T11:55:45.031Z,11.00
2017-11-15T11:58:12.478Z,11.00
2017-11-15T12:00:39.963Z,11.00
2017-11-15T12:03:07.444Z,11.10
2017-11-15T12:05:34.904Z,11.00
2017-11-15T12:08:03.994Z,10.90
2017-11-15T12:10:31.421Z,10.90
2017-11-15T12:12:58.911Z,10.90
2017-11-15T12:15:27.152Z,10.90
2017-11-15T12:17:54.613Z,10.90
2017-11-15T12:20:22.102Z,10.90
2017-11-15T12:22:49.561Z,10.80
2017-11-15T12:25:17.044Z,10.90
2017-11-15T12:27:44.496Z,10.80
2017-11-15T12:30:12.011Z,10.90
2017-11-15T12:32:39.453Z,10.90
2017-11-15T12:35:06.980Z,10.90
2017-11-15T12:37:34.469Z,10.90
2017-11-15T12:40:02.789Z,10.90
2017-11-15T12:42:30.737Z,10.90
2017-11-15T12:44:58.897Z,10.90
2017-11-15T12:47:26.283Z,10.90
2017-11-15T12:49:53.774Z,10.90
2017-11-15T12:52:21.257Z,10.80
2017-11-15T12:54:48.721Z,10.90
2017-11-15T12:57:16.520Z,10.90
2017-11-15T12:59:44.757Z,10.80
2017-11-15T13:02:12.259Z,10.80
2017-11-15T13:04:40.570Z,10.90
2017-11-15T13:07:08.018Z,10.90
2017-11-15T13:09:35.494Z,10.90
2017-11-15T13:12:02.987Z,10.90
2017-11-15T13:14:30.429Z,10.90
2017-11-15T13:16:57.904Z,10.90
2017-11-15T13:19:25.373Z,10.90
2017-11-15T13:21:53.061Z,10.80
2017-11-15T13:24:20.552Z,10.80
2017-11-15T13:26:48.012Z,10.70
2017-11-15T13:29:16.241Z,10.80
2017-11-15T13:31:43.729Z,10.80
2017-11-15T13:34:11.272Z,10.80
2017-11-15T13:36:38.740Z,10.90
2017-11-15T13:39:06.245Z,10.80
2017-11-15T13:41:34.460Z,10.90
2017-11-15T13:44:02.687Z,10.90
2017-11-15T13:46:30.167Z,11.00
2017-11-15T13:48:57.652Z,11.00
2017-11-15T13:51:25.149Z,11.00
2017-11-15T13:53:52.684Z,11.00
2017-11-15T13:56:20.182Z,11.00
2017-11-15T13:58:47.659Z,11.00
2017-11-15T14:01:15.113Z,10.90
2017-11-15T14:03:42.621Z,11.00
2017-11-15T14:06:10.132Z,10.90
2017-11-15T14:08:37.612Z,10.90
2017-11-15T14:11:05.122Z,10.90
2017-11-15T14:13:32.615Z,10.90
2017-11-15T14:16:00.384Z,10.80
2017-11-15T14:18:28.564Z,10.80
2017-11-15T14:20:56.042Z,10.80
2017-11-15T14:23:23.520Z,10.80
2017-11-15T14:25:51.013Z,10.80
2017-11-15T14:28:18.519Z,10.80
2017-11-15T14:30:45.985Z,10.70
2017-11-15T14:33:13.662Z,10.70
2017-11-15T14:35:41.126Z,10.70
2017-11-15T14:38:08.616Z,10.70
2017-11-15T14:40:36.874Z,10.80
2017-11-15T14:43:04.353Z,10.80
2017-11-15T14:45:32.578Z,10.90
2017-11-15T14:48:00.105Z,10.80
2017-11-15T14:50:27.591Z,10.80
2017-11-15T14:52:55.041Z,10.80
2017-11-15T14:55:22.516Z,10.80
2017-11-15T14:57:50.032Z,10.80
2017-11-15T15:00:17.492Z,10.80
2017-11-15T15:02:44.994Z,10.90
2017-11-15T15:05:12.461Z,10.90
2017-11-15T15:07:40.431Z,10.90
2017-11-15T15:10:07.888Z,10.90
2017-11-15T15:12:36.106Z,11.00
2017-11-15T15:15:03.607Z,11.00
2017-11-15T15:17:31.210Z,11.00
2017-11-15T15:19:58.709Z,10.90
2017-11-15T15:22:26.210Z,11.00
2017-11-15T15:24:53.721Z,11.00
2017-11-15T15:27:21.251Z,10.90
2017-11-15T15:29:48.798Z,10.90
2017-11-15T15:32:17.076Z,10.90
2017-11-15T15:34:44.555Z,10.90
2017-11-15T15:37:11.992Z,10.90
2017-11-15T15:39:40.238Z,10.90
2017-11-15T15:42:07.765Z,10.90
2017-11-15T15:44:35.282Z,10.90
2017-11-15T15:47:02.747Z,10.90
2017-11-15T15:49:30.468Z,10.90
2017-11-15T15:51:57.896Z,11.00
2017-11-15T15:54:26.203Z,10.90
2017-11-15T15:56:53.623Z,10.90
2017-11-15T15:59:21.073Z,10.90
2017-11-15T16:01:48.820Z,10.90
2017-11-15T16:04:16.286Z,10.90
2017-11-15T16:06:43.800Z,10.90
2017-11-15T16:09:12.037Z,10.90
2017-11-15T16:11:39.488Z,10.90
2017-11-15T16:14:06.998Z,10.90
2017-11-15T16:16:34.426Z,10.90
2017-11-15T16:19:01.922Z,10.90
2017-11-15T16:21:29.361Z,10.90
2017-11-15T16:23:56.847Z,10.90
2017-11-15T16:26:25.148Z,10.80
2017-11-15T16:28:53.377Z,10.80
2017-11-15T16:31:20.884Z,10.80
2017-11-15T16:33:49.165Z,10.80
2017-11-15T16:36:16.609Z,10.80
2017-11-15T16:38:44.108Z,10.80
2017-11-15T16:41:11.592Z,10.80
2017-11-15T16:43:39.062Z,10.80
2017-11-15T16:46:06.581Z,10.80
2017-11-15T16:48:34.981Z,10.80
2017-11-15T16:51:02.464Z,10.80
2017-11-15T16:53:29.975Z,10.80
2017-11-15T16:55:57.445Z,10.80
2017-11-15T16:58:25.672Z,10.80
2017-11-15T17:00:53.192Z,10.80
2017-11-15T17:03:21.579Z,10.80
2017-11-15T17:05:49.817Z,10.80
2017-11-15T17:08:19.032Z,10.80
2017-11-15T17:10:46.479Z,10.70
2017-11-15T17:13:13.969Z,10.70
2017-11-15T17:15:42.184Z,10.80
2017-11-15T17:18:09.715Z,10.70
2017-11-15T17:20:38.005Z,10.70
2017-11-15T17:23:06.291Z,10.70
2017-11-15T17:25:34.543Z,10.70
2017-11-15T17:28:02.057Z,10.70
2017-11-15T17:30:29.573Z,10.70
2017-11-15T17:32:57.040Z,10.60
2017-11-15T17:35:25.268Z,10.50
2017-11-15T17:37:52.915Z,10.50
2017-11-15T17:40:20.335Z,10.50
2017-11-15T17:42:47.803Z,10.50
2017-11-15T17:45:15.388Z,10.60
2017-11-15T17:47:43.613Z,10.70
2017-11-15T17:50:11.061Z,10.60
2017-11-15T17:52:38.557Z,10.60
2017-11-15T17:55:06.035Z,10.60
2017-11-15T17:57:33.497Z,10.60
2017-11-15T18:00:01.014Z,10.60
2017-11-15T18:02:28.476Z,10.60
2017-11-15T18:04:55.922Z,10.60
2017-11-15T18:07:23.409Z,10.60
2017-11-15T18:09:50.913Z,10.60
2017-11-15T18:12:18.419Z,10.60
2017-11-15T18:14:45.888Z,10.60
2017-11-15T18:17:13.395Z,10.60
2017-11-15T18:19:40.831Z,10.50
2017-11-15T18:22:08.323Z,10.50
2017-11-15T18:24:35.778Z,10.50
2017-11-15T18:27:03.319Z,10.50
2017-11-15T18:29:30.788Z,10.50
2017-11-15T18:31:58.244Z,10.40
2017-11-15T18:34:25.752Z,10.40
2017-11-15T18:36:54.007Z,10.50
2017-11-15T18:39:21.524Z,10.50
2017-11-15T18:41:49.008Z,10.50
2017-11-15T18:44:16.513Z,10.50
2017-11-15T18:46:43.975Z,10.50
2017-11-15T18:49:11.850Z,10.50
2017-11-15T18:51:39.435Z,10.50
2017-11-15T18:54:06.860Z,10.50
2017-11-15T18:56:34.341Z,10.50
2017-11-15T18:59:01.860Z,10.50
2017-11-15T19:01:29.278Z,10.50
2017-11-15T19:03:56.771Z,10.50
2017-11-15T19:06:25.002Z,10.40
2017-11-15T19:08:52.497Z,10.40
2017-11-15T19:11:19.985Z,10.50
2017-11-15T19:13:47.493Z,10.50
2017-11-15T19:16:14.984Z,10.50
2017-11-15T19:18:42.496Z,10.50
2017-11-15T19:21:09.974Z,10.40
2017-11-15T19:23:38.219Z,10.50
2017-11-15T19:26:06.449Z,10.50
2017-11-15T19:28:34.164Z,10.50
2017-11-15T19:31:02.406Z,10.50
2017-11-15T19:33:29.866Z,10.40
2017-11-15T19:35:57.361Z,10.50
2017-11-15T19:38:25.639Z,10.50
2017-11-15T19:40:53.871Z,10.50
2017-11-15T19:43:21.369Z,10.50
2017-11-15T19:45:48.847Z,10.50
2017-11-15T19:48:16.340Z,10.50
2017-11-15T19:50:43.780Z,10.50
2017-11-15T19:53:11.462Z,10.50
2017-11-15T19:55:38.930Z,10.50
2017-11-15T19:58:06.404Z,10.50
2017-11-15T20:00:33.859Z,10.50
2017-11-15T20:03:01.501Z,10.60
2017-11-15T20:05:29.772Z,10.60
2017-11-15T20:07:58.024Z,10.60
2017-11-15T20:10:25.916Z,10.60
2017-11-15T20:12:53.503Z,10.60
2017-11-15T20:15:20.963Z,10.60
2017-11-15T20:17:49.176Z,10.50
2017-11-15T20:20:16.708Z,10.50
2017-11-15T20:22:44.219Z,10.50
2017-11-15T20:25:11.707Z,10.50
2017-11-15T20:27:40.012Z,10.50
2017-11-15T20:30:08.237Z,10.50
2017-11-15T20:32:35.711Z,10.50
2017-11-15T20:35:03.262Z,10.50
2017-11-15T20:37:30.711Z,10.60
2017-11-15T20:39:58.201Z,10.60
2017-11-15T20:42:25.760Z,10.50
2017-11-15T20:44:53.219Z,10.60
2017-11-15T20:47:20.701Z,10.50
2017-11-15T20:49:48.189Z,10.60
2017-11-15T20:52:15.787Z,10.60
2017-11-15T20:54:43.311Z,10.60
2017-11-15T20:57:11.578Z,10.60
2017-11-15T20:59:39.055Z,10.60
2017-11-15T21:02:06.561Z,10.60
2017-11-15T21:04:42.532Z,10.60
2017-11-15T21:07:09.995Z,10.60
2017-11-15T21:09:37.468Z,10.60
2017-11-15T21:12:04.965Z,10.60
2017-11-15T21:14:32.481Z,10.50
2017-11-15T21:16:59.940Z,10.50
2017-11-15T21:19:27.446Z,10.60
2017-11-15T21:21:54.924Z,10.60
2017-11-15T21:24:22.402Z,10.60
2017-11-15T21:26:50.708Z,10.60
2017-11-15T21:29:18.222Z,10.60
2017-11-15T21:31:45.694Z,10.60
2017-11-15T21:34:13.215Z,10.60
2017-11-15T21:36:40.704Z,10.60
2017-11-15T21:39:08.180Z,10.60
2017-11-15T21:41:35.834Z,10.60
2017-11-15T21:44:03.341Z,10.60
2017-11-15T21:46:31.735Z,10.60
2017-11-15T21:48:59.237Z,10.50
2017-11-15T21:51:26.684Z,10.50
2017-11-15T21:53:54.184Z,10.50
2017-11-15T21:56:23.225Z,10.40
2017-11-15T21:58:51.599Z,10.40
2017-11-15T22:01:19.103Z,10.40
2017-11-15T22:03:46.594Z,10.40
2017-11-15T22:06:14.104Z,10.50
2017-11-15T22:08:41.649Z,10.50
2017-11-15T22:11:09.182Z,10.50
2017-11-15T22:13:36.673Z,10.50
2017-11-15T22:16:06.714Z,10.50
2017-11-15T22:18:34.183Z,10.50
2017-11-15T22:21:01.922Z,10.50
2017-11-15T22:23:29.416Z,10.50
2017-11-15T22:25:56.931Z,10.50
2017-11-15T22:28:24.349Z,10.50
2017-11-15T22:30:51.817Z,10.50
2017-11-15T22:33:19.329Z,10.60
2017-11-15T22:35:47.588Z,10.50
2017-11-15T22:38:15.062Z,10.50
2017-11-15T22:40:42.527Z,10.50
2017-11-15T22:43:10.020Z,10.50
2017-11-15T22:45:37.523Z,10.50
2017-11-15T22:48:04.959Z,10.50
2017-11-15T22:50:32.467Z,10.50
2017-11-15T22:52:59.939Z,10.40
2017-11-15T22:55:27.531Z,10.40
2017-11-15T22:57:55.820Z,10.40
2017-11-15T23:00:23.271Z,10.40
2017-11-15T23:02:50.849Z,10.40
2017-11-15T23:05:18.365Z,10.50
2017-11-15T23:07:45.818Z,10.50
2017-11-15T23:10:13.354Z,10.50
2017-11-15T23:12:41.554Z,10.50
2017-11-15T23:15:09.059Z,10.50
2017-11-15T23:17:37.368Z,10.50
2017-11-15T23:20:04.904Z,10.40
2017-11-15T23:22:33.070Z,10.50
2017-11-15T23:25:00.560Z,10.40
2017-11-15T23:27:28.039Z,10.50
2017-11-15T23:29:56.282Z,10.40
2017-11-15T23:32:23.800Z,10.40
2017-11-15T23:34:51.296Z,10.40
2017-11-15T23:37:18.842Z,10.40
2017-11-15T23:39:46.367Z,10.40
2017-11-15T23:42:13.825Z,10.40
2017-11-15T23:44:41.289Z,10.40
2017-11-15T23:47:08.797Z,10.40
2017-11-15T23:49:36.312Z,10.40
2017-11-15T23:52:03.824Z,10.40
2017-11-15T23:54:31.293Z,10.40
2017-11-15T23:56:58.751Z,10.40
2017-11-15T23:59:26.271Z,10.30
